Terminal Aerodrome Forecast
Issued by NWS

Home | Current Version | Previous Version | Text Only | Print | Product List | Glossary On
Versions: 1 2 3 4 5 6 7 8 9 10 11 12 13 14 15 16 17 18 19 20 21 22 23 24 25 26 27 28 29
000
FTUS43 KDVN 201100
TAFCID
TAF
KCID 201130Z 2012/2112 14006KT 5SM BR OVC012
      TEMPO 2012/2015 4SM -FZDZSN BR OVC007
     FM201500 16007KT 4SM BR OVC008
     FM201800 17006KT P6SM OVC012
     FM210000 14005KT 4SM BR OVC008
     FM210600 16006KT 3SM -FZDZ BR OVC005=

USA.gov is the U.S. government's official web portal to all federal, state and local government web resources and services.